createdAt,value
2016-08-21T00:00:32.467Z,0
2016-08-21T00:01:33.083Z,0
2016-08-21T00:02:32.389Z,0
2016-08-21T00:03:33.058Z,0
2016-08-21T00:04:32.340Z,0
2016-08-21T00:05:33.039Z,0
2016-08-21T00:06:32.299Z,0
2016-08-21T00:07:33.015Z,0
2016-08-21T00:08:32.268Z,0
2016-08-21T00:09:32.997Z,0
2016-08-21T00:10:32.979Z,0
2016-08-21T00:11:31.560Z,0
2016-08-21T00:12:32.250Z,0
2016-08-21T00:13:31.507Z,0
2016-08-21T00:14:32.927Z,0
2016-08-21T00:15:32.927Z,0
2016-08-21T00:16:32.217Z,0
2016-08-21T00:17:32.260Z,0
2016-08-21T00:18:32.171Z,0
2016-08-21T00:19:32.947Z,0
2016-08-21T00:20:32.140Z,0
2016-08-21T00:21:30.711Z,0
2016-08-21T00:22:30.680Z,0
2016-08-21T00:23:32.103Z,0
2016-08-21T00:24:31.377Z,0
2016-08-21T00:25:30.637Z,0
2016-08-21T00:26:31.356Z,0
2016-08-21T00:27:32.765Z,0
2016-08-21T00:28:32.039Z,0
2016-08-21T00:29:31.319Z,0
2016-08-21T00:30:31.290Z,0
2016-08-21T00:31:31.998Z,0
2016-08-21T00:32:31.990Z,0
2016-08-21T00:33:32.700Z,0
2016-08-21T00:34:32.010Z,0
2016-08-21T00:35:32.679Z,0
2016-08-21T00:36:32.660Z,0
2016-08-21T00:37:32.648Z,0
2016-08-21T00:38:32.630Z,0
2016-08-21T00:39:32.725Z,0
2016-08-21T00:40:31.890Z,0
2016-08-21T00:41:32.639Z,0
2016-08-21T00:42:31.846Z,0
2016-08-21T00:43:32.640Z,0
2016-08-21T00:44:32.544Z,0
2016-08-21T00:45:31.819Z,0
2016-08-21T00:46:31.799Z,0
2016-08-21T00:47:31.790Z,0
2016-08-21T00:48:31.771Z,0
2016-08-21T00:49:32.530Z,0
2016-08-21T00:50:31.738Z,0
2016-08-21T00:51:32.528Z,0
2016-08-21T00:52:31.716Z,0
2016-08-21T00:53:31.711Z,0
2016-08-21T00:54:32.397Z,0
2016-08-21T00:55:31.680Z,0
2016-08-21T00:56:32.373Z,0
2016-08-21T00:57:31.667Z,0
2016-08-21T00:58:31.648Z,0
2016-08-21T00:59:30.904Z,0
2016-08-21T01:00:30.962Z,0
2016-08-21T01:01:30.155Z,0
2016-08-21T01:02:31.578Z,0
2016-08-21T01:03:32.301Z,0
2016-08-21T01:04:31.558Z,0
2016-08-21T01:05:32.257Z,0
2016-08-21T01:06:31.537Z,0
2016-08-21T01:07:31.563Z,0
2016-08-21T01:08:31.495Z,0
2016-08-21T01:09:31.510Z,0
2016-08-21T01:10:31.457Z,0
2016-08-21T01:11:32.190Z,0
2016-08-21T01:12:32.159Z,0
2016-08-21T01:13:30.719Z,0
2016-08-21T01:14:32.190Z,0
2016-08-21T01:15:31.398Z,0
2016-08-21T01:16:30.689Z,0
2016-08-21T01:17:31.440Z,0
2016-08-21T01:18:30.659Z,0
2016-08-21T01:19:30.659Z,0
2016-08-21T01:20:32.060Z,0
2016-08-21T01:21:29.967Z,0
2016-08-21T01:22:30.626Z,0
2016-08-21T01:23:32.011Z,0
2016-08-21T01:24:31.276Z,0
2016-08-21T01:25:31.276Z,0
2016-08-21T01:26:31.250Z,0
2016-08-21T01:27:31.963Z,0
2016-08-21T01:28:31.943Z,0
2016-08-21T01:29:31.960Z,0
2016-08-21T01:30:31.922Z,0
2016-08-21T01:31:31.189Z,0
2016-08-21T01:32:31.900Z,0
2016-08-21T01:33:31.180Z,0
2016-08-21T01:34:31.216Z,0
2016-08-21T01:35:31.842Z,0
2016-08-21T01:36:31.828Z,0
2016-08-21T01:37:31.110Z,0
2016-08-21T01:38:31.087Z,0
2016-08-21T01:39:31.063Z,0
2016-08-21T01:40:30.369Z,0
2016-08-21T01:41:31.062Z,0
2016-08-21T01:42:31.159Z,0
2016-08-21T01:43:31.016Z,0
2016-08-21T01:44:31.072Z,0
2016-08-21T01:45:31.717Z,0
2016-08-21T01:46:31.698Z,0
2016-08-21T01:47:31.681Z,0
2016-08-21T01:48:31.018Z,0
2016-08-21T01:49:30.962Z,0
2016-08-21T01:50:31.741Z,0
2016-08-21T01:51:30.910Z,0
2016-08-21T01:52:31.697Z,0
2016-08-21T01:53:31.600Z,0
2016-08-21T01:54:31.580Z,0
2016-08-21T01:55:30.858Z,0
2016-08-21T01:56:31.554Z,0
2016-08-21T01:57:31.565Z,0
2016-08-21T01:58:29.409Z,0
2016-08-21T01:59:30.810Z,0
2016-08-21T02:00:30.795Z,0
2016-08-21T02:01:30.756Z,0
2016-08-21T02:02:31.549Z,0
2016-08-21T02:03:31.459Z,0
2016-08-21T02:04:31.465Z,0
2016-08-21T02:05:31.431Z,0
2016-08-21T02:06:30.747Z,0
2016-08-21T02:07:31.409Z,0
2016-08-21T02:08:30.008Z,0
2016-08-21T02:09:31.380Z,0
2016-08-21T02:10:29.946Z,0
2016-08-21T02:11:31.347Z,0
2016-08-21T02:12:29.901Z,0
2016-08-21T02:13:29.880Z,0
2016-08-21T02:14:30.606Z,0
2016-08-21T02:15:30.581Z,0
2016-08-21T02:16:30.588Z,0
2016-08-21T02:17:29.125Z,0
2016-08-21T02:18:31.255Z,0
2016-08-21T02:19:29.808Z,0
2016-08-21T02:20:31.225Z,0
2016-08-21T02:21:31.197Z,0
2016-08-21T02:22:30.501Z,0
2016-08-21T02:23:30.465Z,0
2016-08-21T02:24:30.490Z,0
2016-08-21T02:25:31.144Z,0
2016-08-21T02:26:30.471Z,0
2016-08-21T02:27:31.139Z,0
2016-08-21T02:28:29.760Z,0
2016-08-21T02:29:31.099Z,0
2016-08-21T02:30:30.369Z,0
2016-08-21T02:31:31.066Z,0
2016-08-21T02:32:31.059Z,0
2016-08-21T02:33:31.032Z,0
2016-08-21T02:34:29.641Z,0
2016-08-21T02:35:30.433Z,0
2016-08-21T02:36:30.357Z,0
2016-08-21T02:37:30.979Z,0
2016-08-21T02:38:29.541Z,0
2016-08-21T02:39:29.531Z,0
2016-08-21T02:40:30.250Z,0
2016-08-21T02:41:30.205Z,0
2016-08-21T02:42:29.480Z,0
2016-08-21T02:43:30.886Z,0
2016-08-21T02:44:30.159Z,0
2016-08-21T02:45:30.870Z,0
2016-08-21T02:46:30.917Z,0
2016-08-21T02:47:29.416Z,0
2016-08-21T02:48:29.409Z,0
2016-08-21T02:49:30.816Z,0
2016-08-21T02:50:30.817Z,0
2016-08-21T02:51:30.784Z,0
2016-08-21T02:52:30.850Z,0
2016-08-21T02:53:30.048Z,0
2016-08-21T02:54:30.746Z,0
2016-08-21T02:55:30.730Z,0
2016-08-21T02:56:30.746Z,0
2016-08-21T02:57:29.987Z,0
2016-08-21T02:58:29.257Z,0
2016-08-21T02:59:29.249Z,0
2016-08-21T03:00:30.658Z,0
2016-08-21T03:01:30.648Z,0
2016-08-21T03:02:30.650Z,0
2016-08-21T03:03:30.619Z,0
2016-08-21T03:04:30.618Z,0
2016-08-21T03:05:30.643Z,0
2016-08-21T03:06:30.570Z,0
2016-08-21T03:07:29.841Z,0
2016-08-21T03:08:29.834Z,0
2016-08-21T03:09:30.524Z,0
2016-08-21T03:10:29.808Z,0
2016-08-21T03:11:30.510Z,0
2016-08-21T03:12:29.779Z,0
2016-08-21T03:13:29.811Z,0
2016-08-21T03:14:29.799Z,0
2016-08-21T03:15:30.446Z,0
2016-08-21T03:16:30.437Z,0
2016-08-21T03:17:29.841Z,0
2016-08-21T03:18:30.394Z,0
2016-08-21T03:19:30.384Z,0
2016-08-21T03:20:30.388Z,0
2016-08-21T03:21:29.638Z,0
2016-08-21T03:22:29.617Z,0
2016-08-21T03:23:28.919Z,0
2016-08-21T03:24:29.609Z,0
2016-08-21T03:25:29.629Z,0
2016-08-21T03:26:30.277Z,0
2016-08-21T03:27:30.279Z,0
2016-08-21T03:28:29.548Z,0
2016-08-21T03:29:29.600Z,0
2016-08-21T03:30:30.238Z,0
2016-08-21T03:31:30.399Z,0
2016-08-21T03:32:29.484Z,0
2016-08-21T03:33:30.225Z,0
2016-08-21T03:34:30.177Z,0
2016-08-21T03:35:30.176Z,0
2016-08-21T03:36:29.430Z,0
2016-08-21T03:37:27.975Z,0
2016-08-21T03:38:29.410Z,0
2016-08-21T03:39:30.109Z,0
2016-08-21T03:40:30.099Z,0
2016-08-21T03:41:29.366Z,0
2016-08-21T03:42:29.347Z,0
2016-08-21T03:43:30.049Z,0
2016-08-21T03:44:30.039Z,0
2016-08-21T03:45:30.067Z,0
2016-08-21T03:46:29.349Z,0
2016-08-21T03:47:29.988Z,0
2016-08-21T03:48:29.978Z,0
2016-08-21T03:49:29.285Z,0
2016-08-21T03:50:29.950Z,0
2016-08-21T03:51:29.939Z,0
2016-08-21T03:52:29.219Z,0
2016-08-21T03:53:29.908Z,0
2016-08-21T03:54:29.918Z,0
2016-08-21T03:55:29.158Z,0
2016-08-21T03:56:29.876Z,0
2016-08-21T03:57:29.849Z,0
2016-08-21T03:58:29.897Z,0
2016-08-21T03:59:29.115Z,0
2016-08-21T04:00:29.799Z,0
2016-08-21T04:01:29.096Z,0
2016-08-21T04:02:29.790Z,0
2016-08-21T04:03:28.345Z,0
2016-08-21T04:04:29.050Z,0
2016-08-21T04:05:29.787Z,0
2016-08-21T04:06:29.000Z,0
2016-08-21T04:07:29.000Z,0
2016-08-21T04:08:28.976Z,0
2016-08-21T04:09:28.970Z,0
2016-08-21T04:10:28.969Z,0
2016-08-21T04:11:29.659Z,0
2016-08-21T04:12:29.646Z,0
2016-08-21T04:13:29.616Z,0
2016-08-21T04:14:29.619Z,0
2016-08-21T04:15:28.877Z,0
2016-08-21T04:16:28.147Z,0
2016-08-21T04:17:29.636Z,0
2016-08-21T04:18:29.540Z,0
2016-08-21T04:19:29.548Z,0
2016-08-21T04:20:28.809Z,0
2016-08-21T04:21:29.619Z,0
2016-08-21T04:22:28.066Z,0
2016-08-21T04:23:28.768Z,0
2016-08-21T04:24:29.467Z,0
2016-08-21T04:25:28.746Z,0
2016-08-21T04:26:28.713Z,0
2016-08-21T04:27:29.418Z,0
2016-08-21T04:28:29.388Z,5
2016-08-21T04:29:28.697Z,5
2016-08-21T04:30:29.359Z,5
2016-08-21T04:31:27.928Z,5
2016-08-21T04:32:29.359Z,5
2016-08-21T04:33:28.619Z,5
2016-08-21T04:34:29.318Z,5
2016-08-21T04:35:29.318Z,5
2016-08-21T04:36:27.209Z,5
2016-08-21T04:37:29.285Z,5
2016-08-21T04:38:28.579Z,5
2016-08-21T04:39:28.525Z,5
2016-08-21T04:40:27.805Z,5
2016-08-21T04:41:29.228Z,5
2016-08-21T04:42:29.220Z,10
2016-08-21T04:43:29.199Z,10
2016-08-21T04:44:28.467Z,10
2016-08-21T04:45:27.749Z,10
2016-08-21T04:46:28.465Z,10
2016-08-21T04:47:29.125Z,10
2016-08-21T04:48:29.119Z,10
2016-08-21T04:49:29.119Z,10
2016-08-21T04:50:29.118Z,10
2016-08-21T04:51:28.358Z,10
2016-08-21T04:52:28.385Z,10
2016-08-21T04:53:29.036Z,10
2016-08-21T04:54:29.089Z,15
2016-08-21T04:55:28.330Z,15
2016-08-21T04:56:29.008Z,15
2016-08-21T04:57:28.989Z,15
2016-08-21T04:58:28.271Z,15
2016-08-21T04:59:28.969Z,15
2016-08-21T05:00:28.289Z,15
2016-08-21T05:01:28.931Z,15
2016-08-21T05:02:28.220Z,20
2016-08-21T05:03:28.196Z,20
2016-08-21T05:04:28.902Z,20
2016-08-21T05:05:28.167Z,20
2016-08-21T05:06:27.637Z,20
2016-08-21T05:07:28.855Z,20
2016-08-21T05:08:28.139Z,20
2016-08-21T05:09:28.837Z,20
2016-08-21T05:10:28.968Z,20
2016-08-21T05:11:28.789Z,20
2016-08-21T05:12:28.160Z,25
2016-08-21T05:13:27.344Z,25
2016-08-21T05:14:28.049Z,25
2016-08-21T05:15:28.736Z,30
2016-08-21T05:16:28.018Z,30
2016-08-21T05:17:28.697Z,35
2016-08-21T05:18:28.698Z,35
2016-08-21T05:19:28.684Z,40
2016-08-21T05:20:28.764Z,40
2016-08-21T05:21:28.648Z,45
2016-08-21T05:22:27.288Z,40
2016-08-21T05:23:27.909Z,40
2016-08-21T05:24:28.599Z,45
2016-08-21T05:25:27.189Z,45
2016-08-21T05:26:28.599Z,50
2016-08-21T05:27:28.560Z,50
2016-08-21T05:28:28.635Z,55
2016-08-21T05:29:28.529Z,55
2016-08-21T05:30:28.779Z,50
2016-08-21T05:31:27.790Z,50
2016-08-21T05:32:27.775Z,50
2016-08-21T05:33:27.774Z,50
2016-08-21T05:34:28.539Z,50
2016-08-21T05:35:27.719Z,50
2016-08-21T05:36:27.007Z,50
2016-08-21T05:37:27.718Z,50
2016-08-21T05:38:26.998Z,50
2016-08-21T05:39:28.396Z,45
2016-08-21T05:40:26.959Z,45
2016-08-21T05:41:27.648Z,50
2016-08-21T05:42:27.646Z,50
2016-08-21T05:43:28.346Z,50
2016-08-21T05:44:28.401Z,50
2016-08-21T05:45:28.308Z,50
2016-08-21T05:46:26.169Z,45
2016-08-21T05:47:26.876Z,45
2016-08-21T05:48:26.126Z,50
2016-08-21T05:49:26.829Z,50
2016-08-21T05:50:28.288Z,50
2016-08-21T05:51:28.227Z,55
2016-08-21T05:52:28.239Z,55
2016-08-21T05:53:28.210Z,60
2016-08-21T05:54:26.769Z,65
2016-08-21T05:55:28.177Z,70
2016-08-21T05:56:27.439Z,65
2016-08-21T05:57:26.770Z,65
2016-08-21T05:58:28.189Z,70
2016-08-21T05:59:28.119Z,75
2016-08-21T06:00:28.193Z,80
2016-08-21T06:01:28.096Z,80
2016-08-21T06:02:28.117Z,85
2016-08-21T06:03:28.065Z,90
2016-08-21T06:04:28.060Z,95
2016-08-21T06:05:27.389Z,100
2016-08-21T06:06:28.029Z,105
2016-08-21T06:07:27.319Z,115
2016-08-21T06:08:27.277Z,115
2016-08-21T06:09:27.273Z,120
2016-08-21T06:10:27.237Z,120
2016-08-21T06:11:27.970Z,125
2016-08-21T06:12:26.506Z,130
2016-08-21T06:13:27.210Z,130
2016-08-21T06:14:26.488Z,130
2016-08-21T06:15:26.470Z,140
2016-08-21T06:16:27.177Z,145
2016-08-21T06:17:27.172Z,140
2016-08-21T06:18:27.857Z,135
2016-08-21T06:19:26.405Z,130
2016-08-21T06:20:27.144Z,125
2016-08-21T06:21:27.126Z,120
2016-08-21T06:22:25.649Z,120
2016-08-21T06:23:27.085Z,110
2016-08-21T06:24:26.349Z,115
2016-08-21T06:25:27.070Z,105
2016-08-21T06:26:27.050Z,105
2016-08-21T06:27:26.309Z,105
2016-08-21T06:28:26.300Z,105
2016-08-21T06:29:27.049Z,110
2016-08-21T06:30:25.561Z,110
2016-08-21T06:31:27.000Z,115
2016-08-21T06:32:27.695Z,125
2016-08-21T06:33:26.956Z,130
2016-08-21T06:34:27.694Z,130
2016-08-21T06:35:27.638Z,135
2016-08-21T06:36:26.917Z,135
2016-08-21T06:37:26.227Z,135
2016-08-21T06:38:26.890Z,140
2016-08-21T06:39:26.175Z,145
2016-08-21T06:40:25.453Z,145
2016-08-21T06:41:26.156Z,150
2016-08-21T06:42:27.561Z,150
2016-08-21T06:43:27.561Z,145
2016-08-21T06:44:27.542Z,145
2016-08-21T06:45:26.098Z,150
2016-08-21T06:46:26.079Z,150
2016-08-21T06:47:26.810Z,150
2016-08-21T06:48:27.491Z,150
2016-08-21T06:49:26.766Z,150
2016-08-21T06:50:26.757Z,150
2016-08-21T06:51:26.760Z,155
2016-08-21T06:52:25.284Z,160
2016-08-21T06:53:26.727Z,165
2016-08-21T06:54:25.971Z,175
2016-08-21T06:55:26.713Z,185
2016-08-21T06:56:27.379Z,190
2016-08-21T06:57:27.388Z,200
2016-08-21T06:58:26.732Z,210
2016-08-21T06:59:27.546Z,215
2016-08-21T07:00:25.237Z,230
2016-08-21T07:01:25.958Z,240
2016-08-21T07:02:26.588Z,260
2016-08-21T07:03:27.287Z,250
2016-08-21T07:04:27.277Z,255
2016-08-21T07:05:27.267Z,275
2016-08-21T07:06:25.103Z,335
2016-08-21T07:07:25.806Z,290
2016-08-21T07:08:25.808Z,280
2016-08-21T07:09:26.541Z,295
2016-08-21T07:10:26.487Z,240
2016-08-21T07:11:25.751Z,365
2016-08-21T07:12:26.457Z,280
2016-08-21T07:13:27.159Z,265
2016-08-21T07:14:26.442Z,275
2016-08-21T07:15:27.140Z,405
2016-08-21T07:16:27.120Z,580
2016-08-21T07:17:25.689Z,1135
2016-08-21T07:18:26.476Z,1265
2016-08-21T07:19:26.448Z,1110
2016-08-21T07:20:25.765Z,1415
2016-08-21T07:21:27.068Z,790
2016-08-21T07:22:26.395Z,630
2016-08-21T07:23:26.348Z,1065
2016-08-21T07:24:26.339Z,760
2016-08-21T07:25:25.691Z,460
2016-08-21T07:26:25.608Z,300
2016-08-21T07:27:25.603Z,230
2016-08-21T07:28:25.588Z,305
2016-08-21T07:29:26.288Z,325
2016-08-21T07:30:26.332Z,585
2016-08-21T07:31:25.559Z,840
2016-08-21T07:32:26.281Z,1035
2016-08-21T07:33:26.251Z,900
2016-08-21T07:34:26.233Z,680
2016-08-21T07:35:26.223Z,1020
2016-08-21T07:36:26.939Z,790
2016-08-21T07:37:25.491Z,365
2016-08-21T07:38:26.215Z,660
2016-08-21T07:39:25.477Z,265
2016-08-21T07:40:26.899Z,1175
2016-08-21T07:41:26.183Z,210
2016-08-21T07:42:24.725Z,215
2016-08-21T07:43:26.153Z,655
2016-08-21T07:44:24.721Z,745
2016-08-21T07:45:26.149Z,240
2016-08-21T07:46:26.850Z,220
2016-08-21T07:47:26.109Z,445
2016-08-21T07:48:25.379Z,265
2016-08-21T07:49:26.811Z,190
2016-08-21T07:50:26.145Z,270
2016-08-21T07:51:26.797Z,240
2016-08-21T07:52:26.826Z,160
2016-08-21T07:53:26.057Z,130
2016-08-21T07:54:26.771Z,110
2016-08-21T07:55:26.036Z,70
2016-08-21T07:56:24.616Z,75
2016-08-21T07:57:26.740Z,70
2016-08-21T07:58:26.025Z,75
2016-08-21T07:59:26.007Z,85
2016-08-21T08:00:25.288Z,120
2016-08-21T08:01:25.967Z,115
2016-08-21T08:02:25.990Z,95
2016-08-21T08:03:25.252Z,95
2016-08-21T08:04:25.978Z,100
2016-08-21T08:05:26.638Z,110
2016-08-21T08:06:25.958Z,115
2016-08-21T08:07:25.267Z,150
2016-08-21T08:08:26.638Z,140
2016-08-21T08:09:25.897Z,125
2016-08-21T08:10:25.160Z,140
2016-08-21T08:11:26.580Z,150
2016-08-21T08:12:25.861Z,90
2016-08-21T08:13:24.458Z,90
2016-08-21T08:14:26.599Z,90
2016-08-21T08:15:25.119Z,80
2016-08-21T08:16:25.089Z,80
2016-08-21T08:17:24.368Z,80
2016-08-21T08:18:25.800Z,65
2016-08-21T08:19:25.088Z,65
2016-08-21T08:20:25.060Z,65
2016-08-21T08:21:25.049Z,65
2016-08-21T08:22:25.029Z,70
2016-08-21T08:23:25.720Z,75
2016-08-21T08:24:25.729Z,80
2016-08-21T08:25:25.699Z,85
2016-08-21T08:26:26.411Z,80
2016-08-21T08:27:25.688Z,100
2016-08-21T08:28:25.669Z,125
2016-08-21T08:29:25.652Z,130
2016-08-21T08:30:25.648Z,130
2016-08-21T08:31:25.759Z,135
2016-08-21T08:32:25.629Z,155
2016-08-21T08:33:25.622Z,190
2016-08-21T08:34:25.587Z,260
2016-08-21T08:35:24.881Z,245
2016-08-21T08:36:24.859Z,275
2016-08-21T08:37:26.319Z,320
2016-08-21T08:38:26.269Z,395
2016-08-21T08:39:26.271Z,705
2016-08-21T08:40:26.235Z,785
2016-08-21T08:41:25.508Z,460
2016-08-21T08:42:25.497Z,465
2016-08-21T08:43:24.777Z,405
2016-08-21T08:44:24.119Z,375
2016-08-21T08:45:25.478Z,320
2016-08-21T08:46:25.457Z,400
2016-08-21T08:47:24.727Z,680
2016-08-21T08:48:24.776Z,490
2016-08-21T08:49:24.732Z,250
2016-08-21T08:50:26.145Z,395
2016-08-21T08:51:25.408Z,605
2016-08-21T08:52:25.390Z,275
2016-08-21T08:53:24.658Z,295
2016-08-21T08:54:25.370Z,220
2016-08-21T08:55:24.628Z,255
2016-08-21T08:56:24.627Z,345
2016-08-21T08:57:24.628Z,215
2016-08-21T08:58:26.040Z,140
2016-08-21T08:59:25.338Z,110
2016-08-21T09:00:26.005Z,90
2016-08-21T09:01:26.010Z,90
2016-08-21T09:02:24.662Z,85
2016-08-21T09:03:25.278Z,80
2016-08-21T09:04:25.258Z,75
2016-08-21T09:05:23.820Z,80
2016-08-21T09:06:25.239Z,60
2016-08-21T09:07:25.238Z,55
2016-08-21T09:08:25.921Z,55
2016-08-21T09:09:25.222Z,55
2016-08-21T09:10:25.197Z,60
2016-08-21T09:11:24.451Z,55
2016-08-21T09:12:25.191Z,50
2016-08-21T09:13:25.175Z,45
2016-08-21T09:14:23.722Z,40
2016-08-21T09:15:24.467Z,35
2016-08-21T09:16:25.105Z,40
2016-08-21T09:17:25.865Z,40
2016-08-21T09:18:24.369Z,45
2016-08-21T09:19:25.803Z,55
2016-08-21T09:20:25.073Z,65
2016-08-21T09:21:25.127Z,75
2016-08-21T09:22:25.037Z,80
2016-08-21T09:23:25.067Z,110
2016-08-21T09:24:25.119Z,140
2016-08-21T09:25:24.288Z,170
2016-08-21T09:26:25.056Z,205
2016-08-21T09:27:25.696Z,190
2016-08-21T09:28:25.686Z,190
2016-08-21T09:29:25.678Z,180
2016-08-21T09:30:23.504Z,165
2016-08-21T09:31:25.644Z,130
2016-08-21T09:32:24.262Z,135
2016-08-21T09:33:24.177Z,110
2016-08-21T09:34:24.908Z,120
2016-08-21T09:35:25.587Z,120
2016-08-21T09:36:25.569Z,115
2016-08-21T09:37:24.848Z,120
2016-08-21T09:38:23.468Z,120
2016-08-21T09:39:24.833Z,95
2016-08-21T09:40:24.935Z,80
2016-08-21T09:41:24.797Z,95
2016-08-21T09:42:24.796Z,100
2016-08-21T09:43:24.782Z,95
2016-08-21T09:44:24.082Z,90
2016-08-21T09:45:24.763Z,90
2016-08-21T09:46:24.061Z,95
2016-08-21T09:47:25.427Z,90
2016-08-21T09:48:25.425Z,95
2016-08-21T09:49:25.408Z,95
2016-08-21T09:50:22.543Z,95
2016-08-21T09:51:24.688Z,100
2016-08-21T09:52:23.938Z,100
2016-08-21T09:53:25.359Z,100
2016-08-21T09:54:23.920Z,95
2016-08-21T09:55:24.606Z,100
2016-08-21T09:56:23.886Z,100
2016-08-21T09:57:24.593Z,95
2016-08-21T09:58:24.567Z,90
2016-08-21T09:59:24.560Z,85
2016-08-21T10:00:25.286Z,80
2016-08-21T10:01:25.257Z,80
2016-08-21T10:02:24.529Z,80
2016-08-21T10:03:23.099Z,80
2016-08-21T10:04:24.497Z,80
2016-08-21T10:05:23.767Z,80
2016-08-21T10:06:24.457Z,80
2016-08-21T10:07:24.458Z,85
2016-08-21T10:08:24.438Z,100
2016-08-21T10:09:24.427Z,130
2016-08-21T10:10:23.687Z,245
2016-08-21T10:11:24.409Z,250
2016-08-21T10:12:25.119Z,705
2016-08-21T10:13:23.681Z,1010
2016-08-21T10:14:24.370Z,705
2016-08-21T10:15:24.371Z,550
2016-08-21T10:16:24.337Z,540
2016-08-21T10:17:24.325Z,390
2016-08-21T10:18:23.590Z,335
2016-08-21T10:19:24.481Z,250
2016-08-21T10:20:24.326Z,275
2016-08-21T10:21:24.356Z,335
2016-08-21T10:22:24.291Z,250
2016-08-21T10:23:24.256Z,175
2016-08-21T10:24:23.539Z,150
2016-08-21T10:25:24.959Z,145
2016-08-21T10:26:24.927Z,140
2016-08-21T10:27:24.203Z,140
2016-08-21T10:28:23.543Z,165
2016-08-21T10:29:24.179Z,295
2016-08-21T10:30:23.458Z,350
2016-08-21T10:31:24.157Z,290
2016-08-21T10:32:24.875Z,435
2016-08-21T10:33:24.138Z,375
2016-08-21T10:34:24.880Z,235
2016-08-21T10:35:24.836Z,215
2016-08-21T10:36:23.477Z,195
2016-08-21T10:37:24.803Z,225
2016-08-21T10:38:24.067Z,190
2016-08-21T10:39:24.163Z,160
2016-08-21T10:40:24.767Z,130
2016-08-21T10:41:23.328Z,120
2016-08-21T10:42:23.439Z,130
2016-08-21T10:43:22.574Z,135
2016-08-21T10:44:24.057Z,135
2016-08-21T10:45:22.576Z,135
2016-08-21T10:46:24.698Z,150
2016-08-21T10:47:24.809Z,140
2016-08-21T10:48:23.307Z,130
2016-08-21T10:49:24.677Z,125
2016-08-21T10:50:23.961Z,130
2016-08-21T10:51:23.928Z,135
2016-08-21T10:52:24.616Z,130
2016-08-21T10:53:23.994Z,145
2016-08-21T10:54:22.449Z,150
2016-08-21T10:55:23.169Z,165
2016-08-21T10:56:23.859Z,175
2016-08-21T10:57:24.569Z,170
2016-08-21T10:58:23.829Z,185
2016-08-21T10:59:23.827Z,145
2016-08-21T11:00:23.830Z,150
2016-08-21T11:01:23.078Z,130
2016-08-21T11:02:21.645Z,105
2016-08-21T11:03:23.788Z,95
2016-08-21T11:04:23.041Z,85
2016-08-21T11:05:23.827Z,90
2016-08-21T11:06:23.741Z,95
2016-08-21T11:07:23.733Z,100
2016-08-21T11:08:22.307Z,115
2016-08-21T11:09:23.056Z,110
2016-08-21T11:10:23.687Z,105
2016-08-21T11:11:22.966Z,95
2016-08-21T11:12:23.680Z,90
2016-08-21T11:13:23.657Z,85
2016-08-21T11:14:24.361Z,85
2016-08-21T11:15:23.681Z,80
2016-08-21T11:16:23.609Z,85
2016-08-21T11:17:22.164Z,100
2016-08-21T11:18:23.584Z,125
2016-08-21T11:19:22.854Z,125
2016-08-21T11:20:22.848Z,115
2016-08-21T11:21:23.544Z,85
2016-08-21T11:22:24.257Z,85
2016-08-21T11:23:22.819Z,75
2016-08-21T11:24:23.490Z,75
2016-08-21T11:25:23.519Z,75
2016-08-21T11:26:24.210Z,65
2016-08-21T11:27:22.767Z,70
2016-08-21T11:28:23.460Z,70
2016-08-21T11:29:23.469Z,60
2016-08-21T11:30:23.443Z,45
2016-08-21T11:31:21.995Z,45
2016-08-21T11:32:23.412Z,55
2016-08-21T11:33:23.418Z,55
2016-08-21T11:34:22.676Z,60
2016-08-21T11:35:23.378Z,65
2016-08-21T11:36:23.426Z,60
2016-08-21T11:37:23.348Z,70
2016-08-21T11:38:22.598Z,80
2016-08-21T11:39:22.927Z,80
2016-08-21T11:40:21.876Z,90
2016-08-21T11:41:23.297Z,90
2016-08-21T11:42:23.334Z,90
2016-08-21T11:43:23.986Z,100
2016-08-21T11:44:23.247Z,95
2016-08-21T11:45:22.537Z,90
2016-08-21T11:46:23.959Z,95
2016-08-21T11:47:23.202Z,105
2016-08-21T11:48:23.237Z,110
2016-08-21T11:49:23.188Z,130
2016-08-21T11:50:23.190Z,135
2016-08-21T11:51:23.166Z,115
2016-08-21T11:52:23.864Z,120
2016-08-21T11:53:23.909Z,115
2016-08-21T11:54:23.846Z,115
2016-08-21T11:55:23.119Z,115
2016-08-21T11:56:23.820Z,125
2016-08-21T11:57:23.093Z,115
2016-08-21T11:58:22.399Z,90
2016-08-21T11:59:23.758Z,90
2016-08-21T12:00:22.427Z,75
2016-08-21T12:01:23.036Z,75
2016-08-21T12:02:23.017Z,70
2016-08-21T12:03:23.012Z,80
2016-08-21T12:04:23.717Z,105
2016-08-21T12:05:23.695Z,95
2016-08-21T12:06:22.266Z,100
2016-08-21T12:07:22.234Z,110
2016-08-21T12:08:22.998Z,130
2016-08-21T12:09:22.939Z,140
2016-08-21T12:10:23.737Z,150
2016-08-21T12:11:22.887Z,170
2016-08-21T12:12:22.913Z,195
2016-08-21T12:13:22.895Z,220
2016-08-21T12:14:22.880Z,230
2016-08-21T12:15:21.448Z,255
2016-08-21T12:16:21.469Z,255
2016-08-21T12:17:22.844Z,250
2016-08-21T12:18:23.648Z,245
2016-08-21T12:19:22.798Z,240
2016-08-21T12:20:22.298Z,240
2016-08-21T12:21:23.519Z,265
2016-08-21T12:22:23.525Z,280
2016-08-21T12:23:22.754Z,305
2016-08-21T12:24:21.320Z,315
2016-08-21T12:25:23.489Z,240
2016-08-21T12:26:22.929Z,220
2016-08-21T12:27:22.050Z,220
2016-08-21T12:28:21.988Z,245
2016-08-21T12:29:22.690Z,225
2016-08-21T12:30:22.690Z,380
2016-08-21T12:31:21.956Z,265
2016-08-21T12:32:22.664Z,225
2016-08-21T12:33:21.224Z,225
2016-08-21T12:34:21.990Z,220
2016-08-21T12:35:23.336Z,210
2016-08-21T12:36:23.319Z,200
2016-08-21T12:37:22.697Z,215
2016-08-21T12:38:22.579Z,225
2016-08-21T12:39:23.284Z,205
2016-08-21T12:40:22.589Z,190
2016-08-21T12:41:22.559Z,170
2016-08-21T12:42:21.810Z,150
2016-08-21T12:43:22.550Z,130
2016-08-21T12:44:21.809Z,135
2016-08-21T12:45:23.207Z,135
2016-08-21T12:46:21.768Z,150
2016-08-21T12:47:21.816Z,165
2016-08-21T12:48:21.756Z,160
2016-08-21T12:49:21.737Z,165
2016-08-21T12:50:23.170Z,175
2016-08-21T12:51:21.716Z,200
2016-08-21T12:52:22.436Z,210
2016-08-21T12:53:21.704Z,220
2016-08-21T12:54:22.408Z,210
2016-08-21T12:55:21.015Z,200
2016-08-21T12:56:21.674Z,245
2016-08-21T12:57:20.948Z,225
2016-08-21T12:58:23.065Z,225
2016-08-21T12:59:23.058Z,360
2016-08-21T13:00:23.076Z,345
2016-08-21T13:01:21.597Z,235
2016-08-21T13:02:20.259Z,345
2016-08-21T13:03:21.607Z,310
2016-08-21T13:04:22.279Z,335
2016-08-21T13:05:22.355Z,285
2016-08-21T13:06:22.276Z,165
2016-08-21T13:07:22.306Z,160
2016-08-21T13:08:22.278Z,175
2016-08-21T13:09:22.989Z,140
2016-08-21T13:10:22.218Z,115
2016-08-21T13:11:22.319Z,105
2016-08-21T13:12:21.476Z,100
2016-08-21T13:13:22.195Z,95
2016-08-21T13:14:20.752Z,55
2016-08-21T13:15:22.925Z,50
2016-08-21T13:16:22.889Z,60
2016-08-21T13:17:22.879Z,80
2016-08-21T13:18:22.857Z,90
2016-08-21T13:19:22.870Z,95
2016-08-21T13:20:22.827Z,95
2016-08-21T13:21:21.385Z,90
2016-08-21T13:22:22.079Z,90
2016-08-21T13:23:21.346Z,85
2016-08-21T13:24:21.356Z,85
2016-08-21T13:25:21.335Z,85
2016-08-21T13:26:21.354Z,95
2016-08-21T13:27:22.098Z,110
2016-08-21T13:28:22.041Z,135
2016-08-21T13:29:22.727Z,140
2016-08-21T13:30:22.009Z,135
2016-08-21T13:31:22.773Z,140
2016-08-21T13:32:20.616Z,145
2016-08-21T13:33:21.969Z,145
2016-08-21T13:34:21.967Z,145
2016-08-21T13:35:21.938Z,145
2016-08-21T13:36:21.259Z,140
2016-08-21T13:37:21.237Z,140
2016-08-21T13:38:22.651Z,135
2016-08-21T13:39:22.634Z,130
2016-08-21T13:40:21.178Z,135
2016-08-21T13:41:20.429Z,135
2016-08-21T13:42:22.579Z,135
2016-08-21T13:43:22.557Z,140
2016-08-21T13:44:21.128Z,140
2016-08-21T13:45:21.830Z,135
2016-08-21T13:46:22.527Z,135
2016-08-21T13:47:21.827Z,130
2016-08-21T13:48:20.402Z,125
2016-08-21T13:49:21.060Z,115
2016-08-21T13:50:22.477Z,100
2016-08-21T13:51:21.749Z,105
2016-08-21T13:52:21.033Z,100
2016-08-21T13:53:21.809Z,100
2016-08-21T13:54:21.016Z,90
2016-08-21T13:55:21.003Z,100
2016-08-21T13:56:20.274Z,95
2016-08-21T13:57:21.756Z,90
2016-08-21T13:58:20.277Z,90
2016-08-21T13:59:21.660Z,80
2016-08-21T14:00:21.735Z,70
2016-08-21T14:01:20.217Z,65
2016-08-21T14:02:20.929Z,60
2016-08-21T14:03:22.327Z,55
2016-08-21T14:04:21.598Z,65
2016-08-21T14:05:21.597Z,65
2016-08-21T14:06:22.297Z,70
2016-08-21T14:07:21.574Z,80
2016-08-21T14:08:20.835Z,80
2016-08-21T14:09:20.837Z,90
2016-08-21T14:10:21.561Z,100
2016-08-21T14:11:20.808Z,110
2016-08-21T14:12:21.567Z,115